WEATHER DATA

YESTERDAY
Time Temp. Dewp. Hum. Bar. 1h Prec. 24h Prec.
00:09 4 -0.7 71 1026.9 0.0000 0.0000
00:19 3.9 -0.8 71 1026.9 0.0000 0.0000
00:29 3.7 -0.9 71 1026.9 0.0000 0.0000
00:40 3.6 -0.9 72 1026.8 0.0000 0.0000
00:49 3.5 -0.9 72 1026.7 0.0000 0.0000
00:59 3.4 -0.9 73 1026.5 0.0000 0.0000
01:10 3.3 -0.9 73 1026.4 0.0000 0.0000
01:20 3.1 -1 74 1026.2 0.0000 0.0000
01:30 3 -0.9 75 1026.1 0.0000 0.0000
01:37 2.9 -1 75 1026.1 0.0000 0.0000
01:46 2.8 -0.9 76 1026 0.0000 0.0000
01:57 2.7 -0.8 77 1025.8 0.0000 0.0000
02:07 2.6 -0.9 77 1025.7 0.0000 0.0000
02:17 2.5 -0.8 78 1025.5 0.0000 0.0000
02:27 2.4 -0.9 78 1025.5 0.0000 0.0000
02:37 2.3 -1 78 1025.4 0.0000 0.0000
02:47 2.2 -0.9 79 1025.3 0.0000 0.0000
02:57 2.1 -1 79 1025.2 0.0000 0.0000
03:08 2 -1 80 1025.1 0.0000 0.0000
03:18 1.9 -0.9 81 1025 0.0000 0.0000
03:27 1.9 -0.7 82 1024.8 0.0000 0.0000
03:37 1.9 -0.7 82 1024.7 0.0000 0.0000
03:48 1.8 -0.8 82 1024.6 0.0000 0.0000
03:58 1.7 -0.8 83 1024.5 0.0000 0.0000
04:08 1.6 -0.9 83 1024.5 0.0000 0.0000
04:18 1.6 -0.7 84 1024.4 0.0000 0.0000
04:29 1.6 -0.6 85 1024.3 0.0000 0.0000
04:38 1.6 -0.4 86 1024.3 0.0000 0.0000
04:48 1.6 -0.4 86 1024.2 0.0000 0.0000
04:59 1.7 -0.2 87 1024.2 0.0000 0.0000
05:09 1.7 -0.1 88 1024 0.0000 0.0000
05:19 1.7 -0.1 88 1024 0.0000 0.0000
05:29 1.7 -0.1 88 1023.8 0.0000 0.0000
05:39 1.7 -0.1 88 1023.7 0.0000 0.0000
05:49 1.6 0 89 1023.8 0.0000 0.0000
05:59 1.6 0 89 1023.7 0.0000 0.0000
06:10 1.7 0.1 89 1023.6 0.0000 0.0000
06:20 1.8 0.2 89 1023.6 0.0000 0.0000
06:29 1.9 0.3 89 1023.6 0.0000 0.0000
06:39 2.1 0.6 90 1023.5 0.0000 0.0000
06:50 2.3 0.8 90 1023.5 0.0000 0.0000
07:00 2.6 1.1 90 1023.3 0.0000 0.0000
07:10 3 1.5 90 1023.3 0.0000 0.0000
07:20 3.6 2.3 91 1023.2 0.0000 0.0000
07:30 4.3 3 91 1023.2 0.0000 0.0000
07:40 5.4 4.1 91 1023.2 0.0000 0.0000
07:50 6.3 4.6 89 1023.1 0.0000 0.0000
08:01 7.1 5.1 87 1023.1 0.0000 0.0000
08:11 7.9 5.5 85 1023.1 0.0000 0.0000
08:21 8.8 5.9 82 1022.9 0.0000 0.0000
08:31 9.7 6.4 80 1022.9 0.0000 0.0000
08:41 10.6 6.7 77 1022.8 0.0000 0.0000
08:51 11.4 6.9 74 1022.9 0.0000 0.0000
09:01 12.1 7 71 1022.8 0.0000 0.0000
09:12 12.8 7.3 69 1022.9 0.0000 0.0000
09:22 13.4 7.4 67 1022.9 0.0000 0.0000
09:31 13.8 7.6 66 1022.8 0.0000 0.0000
09:41 14.6 8.3 66 1022.7 0.0000 0.0000
09:52 15.5 8.5 63 1022.7 0.0000 0.0000
10:02 15.7 7.5 58 1022.6 0.0000 0.0000
10:12 14.9 7 59 1022.5 0.0000 0.0000
10:23 14.7 6.8 59 1022.5 0.0000 0.0000
10:33 14.4 6.5 59 1022.4 0.0000 0.0000
10:42 14.1 6.2 59 1022.4 0.0000 0.0000
10:52 14 6.4 60 1022.4 0.0000 0.0000
11:03 13.9 6.3 60 1022.3 0.0000 0.0000
11:13 13.8 6.2 60 1022.3 0.0000 0.0000
11:23 13.8 6.2 60 1022.3 0.0000 0.0000
11:33 13.7 6.1 60 1022.2 0.0000 0.0000
11:44 13.7 6.1 60 1022.1 0.0000 0.0000
11:54 13.7 6.1 60 1022 0.0000 0.0000
12:03 13.6 6 60 1022 0.0000 0.0000
12:14 13.6 6 60 1022 0.0000 0.0000
12:24 13.6 6 60 1022 0.0000 0.0000
12:34 13.7 5.8 59 1021.8 0.0000 0.0000
12:44 13.8 6.2 60 1021.8 0.0000 0.0000
12:55 13.8 5.9 59 1021.8 0.0000 0.0000
13:04 13.8 5.9 59 1021.7 0.0000 0.0000
13:14 13.8 5.9 59 1021.6 0.0000 0.0000
13:24 13.9 6 59 1021.6 0.0000 0.0000
13:35 13.9 6 59 1021.6 0.0000 0.0000
13:45 14 5.9 58 1021.5 0.0000 0.0000
13:55 14.1 6.2 59 1021.4 0.0000 0.0000
14:06 14.3 6.4 59 1021.3 0.0000 0.0000
14:15 14.4 6.5 59 1021.3 0.0000 0.0000
14:25 14.6 6.2 57 1021.2 0.0000 0.0000
14:35 14.7 6.5 58 1021.1 0.0000 0.0000
14:46 14.9 5.7 54 1020.9 0.0000 0.0000
14:56 15 5.2 52 1020.8 0.0000 0.0000
15:06 15 5.5 53 1020.7 0.0000 0.0000
15:16 15 5.8 54 1020.7 0.0000 0.0000
15:26 15 5.5 53 1020.6 0.0000 0.0000
15:36 14.9 5.4 53 1020.5 0.0000 0.0000
15:46 14.9 5.4 53 1020.4 0.0000 0.0000
15:57 14.9 5.4 53 1020.4 0.0000 0.0000
16:07 14.8 5.3 53 1020.4 0.0000 0.0000
16:17 14.8 5.3 53 1020.4 0.0000 0.0000
16:26 14.7 5.2 53 1020.3 0.0000 0.0000
16:37 14.7 5.2 53 1020.3 0.0000 0.0000
16:47 14.7 5 52 1020.2 0.0000 0.0000
16:57 14.6 5.1 53 1020.2 0.0000 0.0000
17:08 14.5 4.8 52 1020.1 0.0000 0.0000
17:18 14.3 4.9 53 1020 0.0000 0.0000
17:28 14.2 4.8 53 1019.9 0.0000 0.0000
17:37 14 4.6 53 1019.9 0.0000 0.0000
17:48 13.8 4.4 53 1019.8 0.0000 0.0000
17:58 13.6 4.5 54 1019.8 0.0000 0.0000
18:08 13.5 4.1 53 1019.7 0.0000 0.0000
18:18 13.3 4.2 54 1019.7 0.0000 0.0000
18:29 13.2 3.6 52 1019.6 0.0000 0.0000
18:38 13.1 3.7 53 1019.6 0.0000 0.0000
18:48 12.9 3.6 53 1019.5 0.0000 0.0000
18:59 12.8 3.5 53 1019.5 0.0000 0.0000
19:09 12.6 3.8 55 1019.4 0.0000 0.0000
19:19 12.3 3.8 56 1019.4 0.0000 0.0000
19:29 12.1 3.6 56 1019.4 0.0000 0.0000
19:40 11.8 3.6 57 1019.4 0.0000 0.0000
19:49 11.6 3.6 58 1019.4 0.0000 0.0000
19:59 11.2 3.3 58 1019.3 0.0000 0.0000
20:10 10.9 3.4 60 1019.4 0.0000 0.0000
20:20 10.5 3.3 61 1019.4 0.0000 0.0000
20:30 10.1 3.2 62 1019.4 0.0000 0.0000
20:40 9.7 2.8 62 1019.4 0.0000 0.0000
20:50 9.3 2.6 63 1019.5 0.0000 0.0000
21:00 8.9 2.5 64 1019.5 0.0000 0.0000
21:10 8.5 2.3 65 1019.5 0.0000 0.0000
21:20 8.1 2.1 66 1019.5 0.0000 0.0000
21:31 7.7 2 67 1019.6 0.0000 0.0000
21:41 7.4 1.9 68 1019.5 0.0000 0.0000
21:51 7.1 1.6 68 1019.6 0.0000 0.0000
22:01 6.8 1.5 69 1019.6 0.0000 0.0000
22:11 6.6 1.3 69 1019.6 0.0000 0.0000
22:21 6.4 1.3 70 1019.5 0.0000 0.0000
22:31 6.1 1.2 71 1019.5 0.0000 0.0000
22:42 5.9 1.1 71 1019.5 0.0000 0.0000
22:52 5.7 0.9 71 1019.4 0.0000 0.0000
23:01 5.5 0.9 72 1019.4 0.0000 0.0000
23:12 5.3 0.9 73 1019.4 0.0000 0.0000
23:22 5.1 0.7 73 1019.4 0.0000 0.0000
23:32 4.9 0.7 74 1019.3 0.0000 0.0000
23:42 4.7 0.7 75 1019.3 0.0000 0.0000
23:53 4.6 0.6 75 1019.3 0.0000 0.0000

DAY STATISTIC

2019-04-21
TEMPERATURE
AVERAGE
8.9
HIGH
15.7
10:02
LOW
1.6
04:08
PRESSURE
AVERAGE
1022.1
HIGH
1026.9
00:09
LOW
1019.3
19:59
DEWPOINT
AVERAGE
3.1
HIGH
8.5
09:52
LOW
-1.0
01:20
HUMIDITY
AVERAGE
68
HIGH
91
07:20
LOW
52
14:56
PRECIPITATION
RAIN HOUR
0.0
RAIN DAY
0.0
TEMPERATURE (°C)
LOW
1.6
HIGH
15.7
AVERAGE
8.9
PRESSURE (hpa)
LOW
1019.3
HIGH
1026.9
AVERAGE
1022.1
DEVICE